Lupton, Michigan
Current Conditions -  °F | °C
As of 5:34 AM on Thursday 18 Dec 2014 (Local Time) from KOSC Reporting Station
Overcast Overcast  
Wind Chill: 16°   Ceiling: 1000
Heat Index: 25°   Visibility: 10mi
Dew Point: 23°   Wind: 9mph
Humidity: 91%   Direction: 330°NNW
Pressure: 30.17"   Gusts: NA
Location:  44.43°N, 84.03°W
Report Text: KOSC 181034Z AUTO 33008KT 10SM OVC010 M03/M05 A3017 RMK AO2 T10381051
Loading
Personal Weather Stations






























Interactive Weather Map New forecast layout! Learn more

10-Day Weather Forecast

Advertisements
Track Severe Weather on mobile